Time,TemperatureF,DewpointF,PressureIn,WindDirection,WindDirectionDegrees,WindSpeedMPH,WindSpeedGustMPH,Humidity,HourlyPrecipIn,Conditions,Clouds,dailyrainin,SoftwareType,DateUTC
2013-10-09 00:02:00,58.1,46.8,30.05,ESE,119,2.0,8.0,66,0.00,,,0.00,Wunderground v.1.15,2013-10-09 05:02:00,
2013-10-09 00:08:00,57.8,46.9,30.05,SE,136,2.0,8.0,67,0.00,,,0.00,Wunderground v.1.15,2013-10-09 05:08:00,
2013-10-09 00:14:00,57.6,47.1,30.05,SE,129,2.0,8.0,68,0.00,,,0.00,Wunderground v.1.15,2013-10-09 05:14:00,
2013-10-09 00:20:00,57.4,46.9,30.06,SE,129,3.0,8.0,68,0.00,,,0.00,Wunderground v.1.15,2013-10-09 05:20:00,
2013-10-09 00:26:00,57.1,47.0,30.05,SE,126,3.0,8.0,69,0.00,,,0.00,Wunderground v.1.15,2013-10-09 05:26:00,
2013-10-09 00:32:00,56.7,47.0,30.05,SE,131,3.0,8.0,70,0.00,,,0.00,Wunderground v.1.15,2013-10-09 05:32:00,
2013-10-09 00:38:00,56.5,47.2,30.06,SE,126,2.0,8.0,71,0.00,,,0.00,Wunderground v.1.15,2013-10-09 05:38:00,
2013-10-09 00:44:00,56.4,47.1,30.05,ESE,113,2.0,8.0,71,0.00,,,0.00,Wunderground v.1.15,2013-10-09 05:44:00,
2013-10-09 00:50:00,56.5,47.2,30.06,SE,138,3.0,8.0,71,0.00,,,0.00,Wunderground v.1.15,2013-10-09 05:50:00,
2013-10-09 00:56:00,56.4,47.5,30.06,SE,129,2.0,8.0,72,0.00,,,0.00,Wunderground v.1.15,2013-10-09 05:56:00,
2013-10-09 01:02:00,56.3,47.4,30.06,SE,146,2.0,8.0,72,0.00,,,0.00,Wunderground v.1.15,2013-10-09 06:02:00,
2013-10-09 01:08:00,56.3,47.4,30.06,SE,129,2.0,8.0,72,0.00,,,0.00,Wunderground v.1.15,2013-10-09 06:08:00,
2013-10-09 01:14:00,56.1,47.6,30.06,SE,129,2.0,8.0,73,0.00,,,0.00,Wunderground v.1.15,2013-10-09 06:14:00,
2013-10-09 01:19:00,55.9,47.4,30.06,SE,138,1.0,8.0,73,0.00,,,0.00,Wunderground v.1.15,2013-10-09 06:19:00,
2013-10-09 01:26:00,55.9,47.7,30.06,SE,141,1.0,8.0,74,0.00,,,0.00,Wunderground v.1.15,2013-10-09 06:26:00,
2013-10-09 01:32:00,55.7,47.5,30.07,SE,125,1.0,8.0,74,0.00,,,0.00,Wunderground v.1.15,2013-10-09 06:32:00,
2013-10-09 01:38:00,55.5,47.3,30.06,ESE,121,0.0,8.0,74,0.00,,,0.00,Wunderground v.1.15,2013-10-09 06:38:00,
2013-10-09 01:44:00,55.3,47.5,30.07,ESE,122,0.0,8.0,75,0.00,,,0.00,Wunderground v.1.15,2013-10-09 06:44:00,
2013-10-09 01:50:00,54.8,47.4,30.07,ESE,123,0.0,8.0,76,0.00,,,0.00,Wunderground v.1.15,2013-10-09 06:50:00,
2013-10-09 01:56:00,54.3,47.2,30.07,ESE,122,0.0,8.0,77,0.00,,,0.00,Wunderground v.1.15,2013-10-09 06:56:00,
2013-10-09 02:01:00,53.7,47.0,30.07,ESE,122,0.0,8.0,78,0.00,,,0.00,Wunderground v.1.15,2013-10-09 07:01:00,
2013-10-09 02:08:00,53.0,47.0,30.07,ESE,121,0.0,8.0,80,0.00,,,0.00,Wunderground v.1.15,2013-10-09 07:08:00,
2013-10-09 02:13:00,52.4,46.7,30.07,ESE,121,0.0,8.0,81,0.00,,,0.00,Wunderground v.1.15,2013-10-09 07:13:00,
2013-10-09 02:20:00,51.7,46.7,30.07,ESE,122,0.0,8.0,83,0.00,,,0.00,Wunderground v.1.15,2013-10-09 07:20:00,
2013-10-09 02:26:00,51.2,46.5,30.07,ESE,121,0.0,8.0,84,0.00,,,0.00,Wunderground v.1.15,2013-10-09 07:26:00,
2013-10-09 02:32:00,50.8,46.5,30.07,ESE,122,0.0,8.0,85,0.00,,,0.00,Wunderground v.1.15,2013-10-09 07:32:00,
2013-10-09 02:38:00,50.5,46.5,30.08,ESE,121,0.0,8.0,86,0.00,,,0.00,Wunderground v.1.15,2013-10-09 07:38:00,
2013-10-09 02:44:00,50.2,46.5,30.08,ESE,122,0.0,8.0,87,0.00,,,0.00,Wunderground v.1.15,2013-10-09 07:44:00,
2013-10-09 02:50:00,50.2,46.8,30.08,ESE,122,0.0,8.0,88,0.00,,,0.00,Wunderground v.1.15,2013-10-09 07:50:00,
2013-10-09 02:56:00,51.6,47.5,30.08,ESE,119,0.0,8.0,86,0.00,,,0.00,Wunderground v.1.15,2013-10-09 07:56:00,
2013-10-09 03:02:00,52.5,47.5,30.08,SE,129,1.0,8.0,83,0.00,,,0.00,Wunderground v.1.15,2013-10-09 08:02:00,
2013-10-09 03:08:00,52.8,47.5,30.08,SE,133,1.0,8.0,82,0.00,,,0.00,Wunderground v.1.15,2013-10-09 08:08:00,
2013-10-09 03:14:00,52.9,47.6,30.08,SE,133,0.0,8.0,82,0.00,,,0.00,Wunderground v.1.15,2013-10-09 08:14:00,
2013-10-09 03:20:00,52.9,47.6,30.08,ESE,116,0.0,8.0,82,0.00,,,0.00,Wunderground v.1.15,2013-10-09 08:20:00,
2013-10-09 03:25:00,52.8,47.5,30.08,ESE,122,0.0,8.0,82,0.00,,,0.00,Wunderground v.1.15,2013-10-09 08:25:00,
2013-10-09 03:32:00,52.8,47.5,30.08,SE,133,0.0,8.0,82,0.00,,,0.00,Wunderground v.1.15,2013-10-09 08:32:00,
2013-10-09 03:37:00,52.7,47.4,30.08,SE,135,1.0,8.0,82,0.00,,,0.00,Wunderground v.1.15,2013-10-09 08:37:00,
2013-10-09 03:44:00,52.8,47.5,30.08,SE,126,1.0,8.0,82,0.00,,,0.00,Wunderground v.1.15,2013-10-09 08:44:00,
2013-10-09 03:50:00,52.8,47.8,30.08,ESE,121,1.0,1.0,83,0.00,,,0.00,Wunderground v.1.15,2013-10-09 08:50:00,
2013-10-09 03:56:00,52.7,47.7,30.09,ESE,122,0.0,8.0,83,0.00,,,0.00,Wunderground v.1.15,2013-10-09 08:56:00,
2013-10-09 04:02:00,52.5,47.5,30.09,ESE,113,0.0,8.0,83,0.00,,,0.00,Wunderground v.1.15,2013-10-09 09:02:00,
2013-10-09 04:08:00,52.3,47.3,30.09,ESE,121,1.0,8.0,83,0.00,,,0.00,Wunderground v.1.15,2013-10-09 09:08:00,
2013-10-09 04:14:00,52.0,47.3,30.09,ESE,119,1.0,8.0,84,0.00,,,0.00,Wunderground v.1.15,2013-10-09 09:14:00,
2013-10-09 04:20:00,51.8,47.1,30.09,SE,129,1.0,8.0,84,0.00,,,0.00,Wunderground v.1.15,2013-10-09 09:20:00,
2013-10-09 04:26:00,51.6,46.9,30.09,ESE,122,1.0,8.0,84,0.00,,,0.00,Wunderground v.1.15,2013-10-09 09:26:00,
2013-10-09 04:32:00,51.5,47.1,30.09,ESE,115,0.0,8.0,85,0.00,,,0.00,Wunderground v.1.15,2013-10-09 09:32:00,
2013-10-09 04:38:00,51.4,47.0,30.10,ESE,122,0.0,8.0,85,0.00,,,0.00,Wunderground v.1.15,2013-10-09 09:38:00,
2013-10-09 04:44:00,51.4,47.0,30.10,ESE,118,0.0,8.0,85,0.00,,,0.00,Wunderground v.1.15,2013-10-09 09:44:00,
2013-10-09 04:50:00,51.4,47.0,30.09,SE,128,1.0,8.0,85,0.00,,,0.00,Wunderground v.1.15,2013-10-09 09:50:00,
2013-10-09 04:56:00,51.4,47.0,30.10,ESE,113,1.0,8.0,85,0.00,,,0.00,Wunderground v.1.15,2013-10-09 09:56:00,
2013-10-09 05:01:00,51.3,46.9,30.10,ESE,118,1.0,8.0,85,0.00,,,0.00,Wunderground v.1.15,2013-10-09 10:01:00,
2013-10-09 05:08:00,51.2,46.8,30.10,ESE,123,1.0,8.0,85,0.00,,,0.00,Wunderground v.1.15,2013-10-09 10:08:00,
2013-10-09 05:14:00,51.1,46.7,30.10,ESE,120,1.0,8.0,85,0.00,,,0.00,Wunderground v.1.15,2013-10-09 10:14:00,
2013-10-09 05:20:00,51.1,46.7,30.10,ESE,122,1.0,8.0,85,0.00,,,0.00,Wunderground v.1.15,2013-10-09 10:20:00,
2013-10-09 05:26:00,51.0,46.6,30.10,ESE,122,1.0,8.0,85,0.00,,,0.00,Wunderground v.1.15,2013-10-09 10:26:00,
2013-10-09 05:32:00,51.0,46.6,30.10,SE,125,1.0,8.0,85,0.00,,,0.00,Wunderground v.1.15,2013-10-09 10:32:00,
2013-10-09 05:37:00,50.9,46.6,30.10,ESE,115,1.0,8.0,85,0.00,,,0.00,Wunderground v.1.15,2013-10-09 10:37:00,
2013-10-09 05:44:00,50.8,46.8,30.10,SE,130,1.0,8.0,86,0.00,,,0.00,Wunderground v.1.15,2013-10-09 10:44:00,
2013-10-09 05:50:00,50.7,46.7,30.10,ESE,121,1.0,8.0,86,0.00,,,0.00,Wunderground v.1.15,2013-10-09 10:50:00,
2013-10-09 05:56:00,50.6,46.6,30.10,ESE,121,2.0,8.0,86,0.00,,,0.00,Wunderground v.1.15,2013-10-09 10:56:00,
2013-10-09 06:02:00,50.6,46.6,30.10,ESE,122,1.0,8.0,86,0.00,,,0.00,Wunderground v.1.15,2013-10-09 11:02:00,
2013-10-09 06:08:00,50.5,46.5,30.10,ESE,113,1.0,8.0,86,0.00,,,0.00,Wunderground v.1.15,2013-10-09 11:08:00,
2013-10-09 06:14:00,50.5,46.5,30.10,ESE,116,1.0,8.0,86,0.00,,,0.00,Wunderground v.1.15,2013-10-09 11:14:00,
2013-10-09 06:20:00,50.4,46.4,30.10,SE,124,1.0,1.0,86,0.00,,,0.00,Wunderground v.1.15,2013-10-09 11:20:00,
2013-10-09 06:26:00,50.3,46.3,30.10,ESE,123,1.0,8.0,86,0.00,,,0.00,Wunderground v.1.15,2013-10-09 11:26:00,
2013-10-09 06:32:00,50.2,46.5,30.10,SE,124,0.0,8.0,87,0.00,,,0.00,Wunderground v.1.15,2013-10-09 11:32:00,
2013-10-09 06:38:00,49.8,46.1,30.10,SE,124,0.0,8.0,87,0.00,,,0.00,Wunderground v.1.15,2013-10-09 11:38:00,
2013-10-09 06:44:00,49.1,45.7,30.10,SE,124,0.0,8.0,88,0.00,,,0.00,Wunderground v.1.15,2013-10-09 11:44:00,
2013-10-09 06:50:00,49.0,45.9,30.10,ESE,118,0.0,8.0,89,0.00,,,0.00,Wunderground v.1.15,2013-10-09 11:50:00,
2013-10-09 06:56:00,49.4,46.3,30.10,ESE,121,1.0,8.0,89,0.00,,,0.00,Wunderground v.1.15,2013-10-09 11:56:00,
2013-10-09 07:01:00,49.5,46.1,30.10,SE,127,1.0,8.0,88,0.00,,,0.00,Wunderground v.1.15,2013-10-09 12:01:00,
2013-10-09 07:08:00,49.5,46.1,30.10,SE,125,1.0,8.0,88,0.00,,,0.00,Wunderground v.1.15,2013-10-09 12:08:00,
2013-10-09 07:10:00,49.6,46.2,30.10,SE,124,1.0,8.0,88,0.00,,,0.00,Wunderground v.1.15,2013-10-09 12:10:00,
2013-10-09 07:15:00,49.6,46.2,30.10,ESE,123,1.0,8.0,88,0.00,,,0.00,Wunderground v.1.15,2013-10-09 12:15:00,
2013-10-09 07:22:00,49.6,46.2,30.10,SE,125,1.0,8.0,88,0.00,,,0.00,Wunderground v.1.15,2013-10-09 12:22:00,
2013-10-09 07:28:00,49.6,46.2,30.10,SE,125,1.0,8.0,88,0.00,,,0.00,Wunderground v.1.15,2013-10-09 12:28:00,
2013-10-09 07:34:00,49.6,46.2,30.10,SE,124,2.0,8.0,88,0.00,,,0.00,Wunderground v.1.15,2013-10-09 12:34:00,
2013-10-09 07:40:00,49.8,46.4,30.11,ESE,123,2.0,8.0,88,0.00,,,0.00,Wunderground v.1.15,2013-10-09 12:40:00,
2013-10-09 07:46:00,49.9,46.2,30.10,SE,129,2.0,8.0,87,0.00,,,0.00,Wunderground v.1.15,2013-10-09 12:46:00,
2013-10-09 07:52:00,50.2,46.5,30.11,SE,135,2.0,8.0,87,0.00,,,0.00,Wunderground v.1.15,2013-10-09 12:52:00,
2013-10-09 07:57:00,50.4,46.7,30.11,ESE,113,3.0,8.0,87,0.00,,,0.00,Wunderground v.1.15,2013-10-09 12:57:00,
2013-10-09 08:04:00,50.7,46.7,30.11,ESE,118,3.0,8.0,86,0.00,,,0.00,Wunderground v.1.15,2013-10-09 13:04:00,
2013-10-09 08:10:00,51.1,47.1,30.11,SE,138,2.0,8.0,86,0.00,,,0.00,Wunderground v.1.15,2013-10-09 13:10:00,
2013-10-09 08:16:00,51.6,47.2,30.11,SE,130,3.0,8.0,85,0.00,,,0.00,Wunderground v.1.15,2013-10-09 13:16:00,
2013-10-09 08:22:00,52.0,47.3,30.11,SE,141,2.0,8.0,84,0.00,,,0.00,Wunderground v.1.15,2013-10-09 13:22:00,
2013-10-09 08:27:00,52.5,47.8,30.12,ESE,121,3.0,8.0,84,0.00,,,0.00,Wunderground v.1.15,2013-10-09 13:27:00,
2013-10-09 08:34:00,52.9,47.9,30.12,SE,130,3.0,8.0,83,0.00,,,0.00,Wunderground v.1.15,2013-10-09 13:34:00,
2013-10-09 08:39:00,53.4,48.0,30.12,SE,134,3.0,8.0,82,0.00,,,0.00,Wunderground v.1.15,2013-10-09 13:39:00,
2013-10-09 08:46:00,53.8,48.4,30.12,SE,131,3.0,8.0,82,0.00,,,0.00,Wunderground v.1.15,2013-10-09 13:46:00,
2013-10-09 08:52:00,54.5,48.8,30.12,ESE,116,2.0,4.0,81,0.00,,,0.00,Wunderground v.1.15,2013-10-09 13:52:00,
2013-10-09 08:58:00,54.9,49.2,30.12,SE,134,2.0,8.0,81,0.00,,,0.00,Wunderground v.1.15,2013-10-09 13:58:00,
2013-10-09 09:04:00,55.5,49.4,30.12,SSE,165,3.0,8.0,80,0.00,,,0.00,Wunderground v.1.15,2013-10-09 14:04:00,
2013-10-09 09:10:00,55.9,49.8,30.13,SSE,160,3.0,3.0,80,0.00,,,0.00,Wunderground v.1.15,2013-10-09 14:10:00,
2013-10-09 09:16:00,56.4,50.0,30.13,SE,130,3.0,8.0,79,0.00,,,0.00,Wunderground v.1.15,2013-10-09 14:16:00,
2013-10-09 09:22:00,57.0,50.2,30.13,ESE,113,3.0,8.0,78,0.00,,,0.00,Wunderground v.1.15,2013-10-09 14:22:00,
2013-10-09 09:28:00,57.8,50.6,30.13,SE,135,3.0,8.0,77,0.00,,,0.00,Wunderground v.1.15,2013-10-09 14:28:00,
2013-10-09 09:34:00,58.4,50.5,30.13,SE,143,4.0,8.0,75,0.00,,,0.00,Wunderground v.1.15,2013-10-09 14:34:00,
2013-10-09 09:40:00,59.2,50.9,30.13,SE,126,4.0,4.0,74,0.00,,,0.00,Wunderground v.1.15,2013-10-09 14:40:00,
2013-10-09 09:46:00,59.8,50.8,30.13,SSE,155,4.0,8.0,72,0.00,,,0.00,Wunderground v.1.15,2013-10-09 14:46:00,
2013-10-09 09:52:00,60.4,51.0,30.13,SE,126,4.0,5.0,71,0.00,,,0.00,Wunderground v.1.15,2013-10-09 14:52:00,
2013-10-09 09:58:00,60.9,51.0,30.13,SE,143,5.0,8.0,70,0.00,,,0.00,Wunderground v.1.15,2013-10-09 14:58:00,
2013-10-09 10:04:00,61.4,51.1,30.13,SSE,155,4.0,8.0,69,0.00,,,0.00,Wunderground v.1.15,2013-10-09 15:04:00,
2013-10-09 10:10:00,62.1,51.0,30.13,SSE,152,4.0,4.0,67,0.00,,,0.00,Wunderground v.1.15,2013-10-09 15:10:00,
2013-10-09 10:15:00,62.6,51.5,30.13,SE,143,4.0,8.0,67,0.00,,,0.00,Wunderground v.1.15,2013-10-09 15:15:00,
2013-10-09 10:22:00,63.1,51.1,30.13,SE,129,4.0,8.0,65,0.00,,,0.00,Wunderground v.1.15,2013-10-09 15:22:00,
2013-10-09 10:28:00,63.3,51.7,30.13,SE,141,5.0,8.0,66,0.00,,,0.00,Wunderground v.1.15,2013-10-09 15:28:00,
2013-10-09 10:34:00,63.7,51.3,30.13,SSE,148,5.0,8.0,64,0.00,,,0.00,Wunderground v.1.15,2013-10-09 15:34:00,
2013-10-09 10:40:00,64.2,51.3,30.13,SSE,147,4.0,8.0,63,0.00,,,0.00,Wunderground v.1.15,2013-10-09 15:40:00,
2013-10-09 10:45:00,64.7,51.4,30.13,SSE,155,4.0,8.0,62,0.00,,,0.00,Wunderground v.1.15,2013-10-09 15:45:00,
2013-10-09 10:52:00,65.1,51.3,30.13,SSW,198,4.0,8.0,61,0.00,,,0.00,Wunderground v.1.15,2013-10-09 15:52:00,
2013-10-09 10:57:00,65.5,51.7,30.13,SW,218,3.0,8.0,61,0.00,,,0.00,Wunderground v.1.15,2013-10-09 15:57:00,
2013-10-09 11:04:00,65.6,51.3,30.14,SSE,149,4.0,8.0,60,0.00,,,0.00,Wunderground v.1.15,2013-10-09 16:04:00,
2013-10-09 11:10:00,65.9,51.2,30.14,SE,143,5.0,8.0,59,0.00,,,0.00,Wunderground v.1.15,2013-10-09 16:10:00,
2013-10-09 11:16:00,66.2,51.4,30.14,SE,139,4.0,8.0,59,0.00,,,0.00,Wunderground v.1.15,2013-10-09 16:16:00,
2013-10-09 11:22:00,66.2,51.0,30.14,SSW,210,4.0,8.0,58,0.00,,,0.00,Wunderground v.1.15,2013-10-09 16:22:00,
2013-10-09 11:28:00,66.3,52.0,30.13,SW,226,4.0,8.0,60,0.00,,,0.00,Wunderground v.1.15,2013-10-09 16:28:00,
2013-10-09 11:34:00,66.3,50.6,30.13,SSE,162,4.0,8.0,57,0.00,,,0.00,Wunderground v.1.15,2013-10-09 16:34:00,
2013-10-09 11:40:00,66.3,51.1,30.13,SE,143,4.0,8.0,58,0.00,,,0.00,Wunderground v.1.15,2013-10-09 16:40:00,
2013-10-09 11:46:00,66.6,50.9,30.13,South,188,5.0,8.0,57,0.00,,,0.00,Wunderground v.1.15,2013-10-09 16:46:00,
2013-10-09 11:51:00,66.9,51.2,30.13,SSE,153,4.0,6.0,57,0.00,,,0.00,Wunderground v.1.15,2013-10-09 16:51:00,
2013-10-09 11:58:00,67.6,50.9,30.13,SE,139,5.0,8.0,55,0.00,,,0.00,Wunderground v.1.15,2013-10-09 16:58:00,
2013-10-09 12:04:00,67.9,51.1,30.12,SSE,165,5.0,8.0,55,0.00,,,0.00,Wunderground v.1.15,2013-10-09 17:04:00,
2013-10-09 12:09:00,68.0,50.7,30.12,SSE,164,5.0,5.0,54,0.00,,,0.00,Wunderground v.1.15,2013-10-09 17:09:00,
2013-10-09 12:16:00,68.3,50.5,30.12,SSE,158,4.0,8.0,53,0.00,,,0.00,Wunderground v.1.15,2013-10-09 17:16:00,
2013-10-09 12:21:00,68.8,51.5,30.12,SSE,150,4.0,8.0,54,0.00,,,0.00,Wunderground v.1.15,2013-10-09 17:21:00,
2013-10-09 12:28:00,69.1,50.7,30.12,ESE,122,4.0,8.0,52,0.00,,,0.00,Wunderground v.1.15,2013-10-09 17:28:00,
2013-10-09 12:34:00,69.1,51.2,30.12,SE,136,5.0,8.0,53,0.00,,,0.00,Wunderground v.1.15,2013-10-09 17:34:00,
2013-10-09 12:40:00,69.3,50.4,30.12,SW,222,5.0,5.0,51,0.00,,,0.00,Wunderground v.1.15,2013-10-09 17:40:00,
2013-10-09 12:46:00,69.6,50.1,30.12,ESE,111,4.0,8.0,50,0.00,,,0.00,Wunderground v.1.15,2013-10-09 17:46:00,
2013-10-09 12:52:00,69.5,50.6,30.11,SE,145,5.0,8.0,51,0.00,,,0.00,Wunderground v.1.15,2013-10-09 17:52:00,
2013-10-09 12:58:00,69.9,49.9,30.11,SSE,149,4.0,8.0,49,0.00,,,0.00,Wunderground v.1.15,2013-10-09 17:58:00,
2013-10-09 13:04:00,69.7,49.7,30.11,SE,133,5.0,8.0,49,0.00,,,0.00,Wunderground v.1.15,2013-10-09 18:04:00,
2013-10-09 13:10:00,69.9,49.9,30.11,SSE,155,5.0,8.0,49,0.00,,,0.00,Wunderground v.1.15,2013-10-09 18:10:00,
2013-10-09 13:16:00,70.2,49.6,30.11,SE,142,4.0,8.0,48,0.00,,,0.00,Wunderground v.1.15,2013-10-09 18:16:00,
2013-10-09 13:22:00,70.7,50.0,30.11,South,173,4.0,8.0,48,0.00,,,0.00,Wunderground v.1.15,2013-10-09 18:22:00,
2013-10-09 13:28:00,71.2,49.4,30.10,SW,214,4.0,8.0,46,0.00,,,0.00,Wunderground v.1.15,2013-10-09 18:28:00,
2013-10-09 13:34:00,71.3,49.4,30.10,SSE,149,4.0,8.0,46,0.00,,,0.00,Wunderground v.1.15,2013-10-09 18:34:00,
2013-10-09 13:40:00,70.9,49.7,30.10,SSE,162,4.0,4.0,47,0.00,,,0.00,Wunderground v.1.15,2013-10-09 18:40:00,
2013-10-09 13:45:00,71.5,49.0,30.09,SW,224,3.0,8.0,45,0.00,,,0.00,Wunderground v.1.15,2013-10-09 18:45:00,
2013-10-09 13:52:00,72.1,48.4,30.09,SE,131,4.0,8.0,43,0.00,,,0.00,Wunderground v.1.15,2013-10-09 18:52:00,
2013-10-09 13:58:00,72.4,48.6,30.09,SSE,150,4.0,8.0,43,0.00,,,0.00,Wunderground v.1.15,2013-10-09 18:58:00,
2013-10-09 14:04:00,72.5,48.7,30.09,ESE,115,4.0,8.0,43,0.00,,,0.00,Wunderground v.1.15,2013-10-09 19:04:00,
2013-10-09 14:10:00,72.6,48.2,30.09,SE,143,5.0,5.0,42,0.00,,,0.00,Wunderground v.1.15,2013-10-09 19:10:00,
2013-10-09 14:15:00,72.9,46.5,30.08,ESE,113,6.0,8.0,39,0.00,,,0.00,Wunderground v.1.15,2013-10-09 19:15:00,
2013-10-09 14:22:00,73.0,46.6,30.08,SE,125,6.0,8.0,39,0.00,,,0.00,Wunderground v.1.15,2013-10-09 19:22:00,
2013-10-09 14:28:00,73.4,47.6,30.08,South,177,5.0,8.0,40,0.00,,,0.00,Wunderground v.1.15,2013-10-09 19:28:00,
2013-10-09 14:34:00,73.4,46.9,30.08,SE,128,4.0,8.0,39,0.00,,,0.00,Wunderground v.1.15,2013-10-09 19:34:00,
2013-10-09 14:40:00,73.1,46.7,30.07,SE,128,6.0,8.0,39,0.00,,,0.00,Wunderground v.1.15,2013-10-09 19:40:00,
2013-10-09 14:46:00,73.2,46.8,30.07,SSE,163,6.0,9.0,39,0.00,,,0.00,Wunderground v.1.15,2013-10-09 19:46:00,
2013-10-09 14:52:00,73.1,47.3,30.07,ESE,113,6.0,8.0,40,0.00,,,0.00,Wunderground v.1.15,2013-10-09 19:52:00,
2013-10-09 14:58:00,73.6,45.0,30.07,SE,139,6.0,8.0,36,0.00,,,0.00,Wunderground v.1.15,2013-10-09 19:58:00,
2013-10-09 15:04:00,73.8,45.9,30.07,SSE,150,6.0,8.0,37,0.00,,,0.00,Wunderground v.1.15,2013-10-09 20:04:00,
2013-10-09 15:09:00,73.8,45.9,30.07,SSW,193,5.0,5.0,37,0.00,,,0.00,Wunderground v.1.15,2013-10-09 20:09:00,
2013-10-09 15:16:00,74.1,46.2,30.06,SE,131,5.0,11.0,37,0.00,,,0.00,Wunderground v.1.15,2013-10-09 20:16:00,
2013-10-09 15:22:00,73.9,46.7,30.06,SE,139,6.0,8.0,38,0.00,,,0.00,Wunderground v.1.15,2013-10-09 20:22:00,
2013-10-09 15:28:00,74.1,46.2,30.06,SE,131,5.0,8.0,37,0.00,,,0.00,Wunderground v.1.15,2013-10-09 20:28:00,
2013-10-09 15:34:00,74.8,46.8,30.06,SSE,155,4.0,8.0,37,0.00,,,0.00,Wunderground v.1.15,2013-10-09 20:34:00,
2013-10-09 15:39:00,74.6,45.1,30.06,SE,136,4.0,8.0,35,0.00,,,0.00,Wunderground v.1.15,2013-10-09 20:39:00,
2013-10-09 15:46:00,74.7,46.0,30.06,SSE,162,5.0,8.0,36,0.00,,,0.00,Wunderground v.1.15,2013-10-09 20:46:00,
2013-10-09 15:52:00,74.9,46.1,30.06,SSE,155,4.0,8.0,36,0.00,,,0.00,Wunderground v.1.15,2013-10-09 20:52:00,
2013-10-09 15:58:00,75.1,46.3,30.06,SSE,152,4.0,8.0,36,0.00,,,0.00,Wunderground v.1.15,2013-10-09 20:58:00,
2013-10-09 16:03:00,75.3,46.5,30.06,SE,146,4.0,8.0,36,0.00,,,0.00,Wunderground v.1.15,2013-10-09 21:03:00,
2013-10-09 16:10:00,75.1,44.8,30.06,SE,124,4.0,8.0,34,0.00,,,0.00,Wunderground v.1.15,2013-10-09 21:10:00,
2013-10-09 16:15:00,75.0,44.7,30.06,SSE,149,5.0,8.0,34,0.00,,,0.00,Wunderground v.1.15,2013-10-09 21:15:00,
2013-10-09 16:22:00,75.1,44.8,30.06,SSE,155,4.0,8.0,34,0.00,,,0.00,Wunderground v.1.15,2013-10-09 21:22:00,
2013-10-09 16:28:00,75.2,44.1,30.06,SSE,155,4.0,8.0,33,0.00,,,0.00,Wunderground v.1.15,2013-10-09 21:28:00,
2013-10-09 16:34:00,74.9,45.4,30.06,SSE,152,4.0,8.0,35,0.00,,,0.00,Wunderground v.1.15,2013-10-09 21:34:00,
2013-10-09 16:40:00,74.8,45.3,30.05,SSE,158,4.0,8.0,35,0.00,,,0.00,Wunderground v.1.15,2013-10-09 21:40:00,
2013-10-09 16:45:00,74.6,45.1,30.05,SSE,163,5.0,8.0,35,0.00,,,0.00,Wunderground v.1.15,2013-10-09 21:45:00,
2013-10-09 16:52:00,74.6,45.1,30.05,SSE,149,5.0,5.0,35,0.00,,,0.00,Wunderground v.1.15,2013-10-09 21:52:00,
2013-10-09 16:57:00,74.3,44.1,30.05,ESE,117,5.0,8.0,34,0.00,,,0.00,Wunderground v.1.15,2013-10-09 21:57:00,
2013-10-09 17:04:00,74.3,44.9,30.05,SSE,150,5.0,8.0,35,0.00,,,0.00,Wunderground v.1.15,2013-10-09 22:04:00,
2013-10-09 17:10:00,74.2,45.5,30.05,SSE,147,4.0,8.0,36,0.00,,,0.00,Wunderground v.1.15,2013-10-09 22:10:00,
2013-10-09 17:16:00,74.0,44.6,30.05,SSE,158,4.0,8.0,35,0.00,,,0.00,Wunderground v.1.15,2013-10-09 22:16:00,
2013-10-09 17:22:00,73.8,45.2,30.05,SE,137,4.0,8.0,36,0.00,,,0.00,Wunderground v.1.15,2013-10-09 22:22:00,
2013-10-09 17:28:00,73.5,45.6,30.05,ESE,118,4.0,8.0,37,0.00,,,0.00,Wunderground v.1.15,2013-10-09 22:28:00,
2013-10-09 17:34:00,73.3,44.0,30.05,SSE,158,4.0,8.0,35,0.00,,,0.00,Wunderground v.1.15,2013-10-09 22:34:00,
2013-10-09 17:39:00,73.2,44.6,30.05,SE,139,4.0,8.0,36,0.00,,,0.00,Wunderground v.1.15,2013-10-09 22:39:00,
2013-10-09 17:46:00,72.9,45.1,30.05,SE,140,4.0,8.0,37,0.00,,,0.00,Wunderground v.1.15,2013-10-09 22:46:00,
2013-10-09 17:52:00,72.7,44.9,30.05,ESE,121,4.0,8.0,37,0.00,,,0.00,Wunderground v.1.15,2013-10-09 22:52:00,
2013-10-09 17:58:00,72.3,45.3,30.05,SE,133,3.0,8.0,38,0.00,,,0.00,Wunderground v.1.15,2013-10-09 22:58:00,
2013-10-09 18:06:00,71.9,45.6,30.05,ESE,121,3.0,8.0,39,0.00,,,0.00,Wunderground v.1.15,2013-10-09 23:06:00,
2013-10-09 18:12:00,71.4,45.8,30.05,ESE,114,3.0,8.0,40,0.00,,,0.00,Wunderground v.1.15,2013-10-09 23:12:00,
2013-10-09 18:18:00,70.8,46.6,30.05,SE,140,2.0,8.0,42,0.00,,,0.00,Wunderground v.1.15,2013-10-09 23:18:00,
2013-10-09 18:24:00,70.1,45.9,30.05,SE,142,2.0,8.0,42,0.00,,,0.00,Wunderground v.1.15,2013-10-09 23:24:00,
2013-10-09 18:29:00,69.5,46.0,30.05,SE,136,1.0,8.0,43,0.00,,,0.00,Wunderground v.1.15,2013-10-09 23:29:00,
2013-10-09 18:36:00,68.9,46.1,30.05,SE,124,1.0,8.0,44,0.00,,,0.00,Wunderground v.1.15,2013-10-09 23:36:00,
2013-10-09 18:42:00,68.5,46.3,30.05,ESE,122,1.0,8.0,45,0.00,,,0.00,Wunderground v.1.15,2013-10-09 23:42:00,
2013-10-09 18:48:00,67.9,46.9,30.05,SE,126,2.0,8.0,47,0.00,,,0.00,Wunderground v.1.15,2013-10-09 23:48:00,
2013-10-09 18:54:00,67.4,47.0,30.05,ESE,122,2.0,8.0,48,0.00,,,0.00,Wunderground v.1.15,2013-10-09 23:54:00,
2013-10-09 19:00:00,66.9,47.1,30.05,SE,129,1.0,1.0,49,0.00,,,0.00,Wunderground v.1.15,2013-10-10 00:00:00,
2013-10-09 19:06:00,66.3,47.6,30.06,SE,129,1.0,8.0,51,0.00,,,0.00,Wunderground v.1.15,2013-10-10 00:06:00,
2013-10-09 19:12:00,65.9,47.3,30.06,ESE,119,1.0,8.0,51,0.00,,,0.00,Wunderground v.1.15,2013-10-10 00:12:00,
2013-10-09 19:17:00,65.4,47.3,30.06,SE,133,1.0,8.0,52,0.00,,,0.00,Wunderground v.1.15,2013-10-10 00:17:00,
2013-10-09 19:24:00,64.9,47.4,30.06,ESE,122,1.0,8.0,53,0.00,,,0.00,Wunderground v.1.15,2013-10-10 00:24:00,
2013-10-09 19:30:00,64.4,47.4,30.06,ESE,122,1.0,8.0,54,0.00,,,0.00,Wunderground v.1.15,2013-10-10 00:30:00,
2013-10-09 19:36:00,64.1,47.6,30.06,ESE,122,1.0,8.0,55,0.00,,,0.00,Wunderground v.1.15,2013-10-10 00:36:00,
2013-10-09 19:42:00,63.7,47.7,30.06,ESE,122,1.0,8.0,56,0.00,,,0.00,Wunderground v.1.15,2013-10-10 00:42:00,
2013-10-09 19:48:00,63.3,47.3,30.07,SE,131,1.0,8.0,56,0.00,,,0.00,Wunderground v.1.15,2013-10-10 00:48:00,
2013-10-09 19:54:00,63.0,47.5,30.07,ESE,123,1.0,8.0,57,0.00,,,0.00,Wunderground v.1.15,2013-10-10 00:54:00,
2013-10-09 20:00:00,62.8,47.3,30.06,ESE,121,1.0,8.0,57,0.00,,,0.00,Wunderground v.1.15,2013-10-10 01:00:00,
2013-10-09 20:06:00,62.5,47.5,30.06,SE,124,1.0,8.0,58,0.00,,,0.00,Wunderground v.1.15,2013-10-10 01:06:00,
2013-10-09 20:11:00,62.2,47.7,30.06,ESE,119,1.0,8.0,59,0.00,,,0.00,Wunderground v.1.15,2013-10-10 01:11:00,
2013-10-09 20:18:00,61.8,47.3,30.06,SE,128,1.0,8.0,59,0.00,,,0.00,Wunderground v.1.15,2013-10-10 01:18:00,
2013-10-09 20:24:00,61.4,47.4,30.06,SE,129,1.0,8.0,60,0.00,,,0.00,Wunderground v.1.15,2013-10-10 01:24:00,
2013-10-09 20:30:00,61.2,47.6,30.06,SE,128,1.0,8.0,61,0.00,,,0.00,Wunderground v.1.15,2013-10-10 01:30:00,
2013-10-09 20:36:00,60.9,47.4,30.06,ESE,123,1.0,8.0,61,0.00,,,0.00,Wunderground v.1.15,2013-10-10 01:36:00,
2013-10-09 20:41:00,60.6,47.5,30.06,SE,124,1.0,8.0,62,0.00,,,0.00,Wunderground v.1.15,2013-10-10 01:41:00,
2013-10-09 20:48:00,60.4,47.3,30.06,SE,126,1.0,8.0,62,0.00,,,0.00,Wunderground v.1.15,2013-10-10 01:48:00,
2013-10-09 20:54:00,60.2,47.6,30.07,ESE,122,1.0,8.0,63,0.00,,,0.00,Wunderground v.1.15,2013-10-10 01:54:00,
2013-10-09 21:00:00,59.8,47.2,30.07,SE,129,1.0,8.0,63,0.00,,,0.00,Wunderground v.1.15,2013-10-10 02:00:00,
2013-10-09 21:05:00,59.6,47.4,30.07,ESE,119,1.0,8.0,64,0.00,,,0.00,Wunderground v.1.15,2013-10-10 02:05:00,
2013-10-09 21:12:00,59.5,47.3,30.07,SE,131,1.0,8.0,64,0.00,,,0.00,Wunderground v.1.15,2013-10-10 02:12:00,
2013-10-09 21:18:00,59.4,47.2,30.07,SE,133,1.0,8.0,64,0.00,,,0.00,Wunderground v.1.15,2013-10-10 02:18:00,
2013-10-09 21:24:00,59.2,47.0,30.07,SE,134,1.0,8.0,64,0.00,,,0.00,Wunderground v.1.15,2013-10-10 02:24:00,
2013-10-09 21:30:00,59.1,47.3,30.07,SE,129,1.0,8.0,65,0.00,,,0.00,Wunderground v.1.15,2013-10-10 02:30:00,
2013-10-09 21:36:00,58.9,47.2,30.07,SE,131,1.0,8.0,65,0.00,,,0.00,Wunderground v.1.15,2013-10-10 02:36:00,
2013-10-09 21:42:00,58.6,46.9,30.08,SE,136,1.0,8.0,65,0.00,,,0.00,Wunderground v.1.15,2013-10-10 02:42:00,
2013-10-09 21:47:00,58.3,47.0,30.08,SE,126,1.0,8.0,66,0.00,,,0.00,Wunderground v.1.15,2013-10-10 02:47:00,
2013-10-09 21:54:00,58.2,46.9,30.08,SE,134,1.0,8.0,66,0.00,,,0.00,Wunderground v.1.15,2013-10-10 02:54:00,
2013-10-09 21:59:00,58.1,46.8,30.08,SE,134,1.0,1.0,66,0.00,,,0.00,Wunderground v.1.15,2013-10-10 02:59:00,
2013-10-09 22:06:00,58.0,46.7,30.08,SE,134,1.0,8.0,66,0.00,,,0.00,Wunderground v.1.15,2013-10-10 03:06:00,
2013-10-09 22:11:00,57.9,46.6,30.08,SE,137,1.0,8.0,66,0.00,,,0.00,Wunderground v.1.15,2013-10-10 03:11:00,
2013-10-09 22:18:00,57.8,46.5,30.08,SE,125,1.0,8.0,66,0.00,,,0.00,Wunderground v.1.15,2013-10-10 03:18:00,
2013-10-09 22:24:00,57.7,46.4,30.08,SE,134,1.0,8.0,66,0.00,,,0.00,Wunderground v.1.15,2013-10-10 03:24:00,
2013-10-09 22:30:00,57.5,46.6,30.08,SE,128,1.0,8.0,67,0.00,,,0.00,Wunderground v.1.15,2013-10-10 03:30:00,
2013-10-09 22:36:00,57.4,46.5,30.08,SE,136,1.0,8.0,67,0.00,,,0.00,Wunderground v.1.15,2013-10-10 03:36:00,
2013-10-09 22:41:00,57.2,46.3,30.08,SE,126,1.0,8.0,67,0.00,,,0.00,Wunderground v.1.15,2013-10-10 03:41:00,
2013-10-09 22:48:00,57.0,46.1,30.08,ESE,119,1.0,8.0,67,0.00,,,0.00,Wunderground v.1.15,2013-10-10 03:48:00,
2013-10-09 22:53:00,56.8,46.3,30.08,SE,128,1.0,8.0,68,0.00,,,0.00,Wunderground v.1.15,2013-10-10 03:53:00,
2013-10-09 23:00:00,56.5,46.1,30.08,SE,129,1.0,8.0,68,0.00,,,0.00,Wunderground v.1.15,2013-10-10 04:00:00,
2013-10-09 23:02:00,56.4,46.4,30.08,SE,138,1.0,8.0,69,0.00,,,0.00,Wunderground v.1.15,2013-10-10 04:02:00,
2013-10-09 23:04:00,56.2,46.2,30.08,SE,136,1.0,8.0,69,0.00,,,0.00,Wunderground v.1.15,2013-10-10 04:04:00,
2013-10-09 23:10:00,56.1,46.1,30.08,SE,143,1.0,8.0,69,0.00,,,0.00,Wunderground v.1.15,2013-10-10 04:10:00,
2013-10-09 23:12:00,56.0,46.0,30.08,SE,138,1.0,8.0,69,0.00,,,0.00,Wunderground v.1.15,2013-10-10 04:12:00,
2013-10-09 23:17:00,55.9,45.9,30.09,SE,125,1.0,8.0,69,0.00,,,0.00,Wunderground v.1.15,2013-10-10 04:17:00,
2013-10-09 23:24:00,55.7,46.1,30.08,SE,125,2.0,8.0,70,0.00,,,0.00,Wunderground v.1.15,2013-10-10 04:24:00,
2013-10-09 23:26:00,55.6,46.0,30.08,SE,132,2.0,8.0,70,0.00,,,0.00,Wunderground v.1.15,2013-10-10 04:26:00,
2013-10-09 23:32:00,55.2,45.6,30.09,SE,138,1.0,8.0,70,0.00,,,0.00,Wunderground v.1.15,2013-10-10 04:32:00,
2013-10-09 23:37:00,54.9,45.7,30.09,SE,126,1.0,8.0,71,0.00,,,0.00,Wunderground v.1.15,2013-10-10 04:37:00,
2013-10-09 23:44:00,54.6,45.8,30.09,SE,126,1.0,8.0,72,0.00,,,0.00,Wunderground v.1.15,2013-10-10 04:44:00,
2013-10-09 23:50:00,54.3,45.5,30.09,ESE,119,1.0,1.0,72,0.00,,,0.00,Wunderground v.1.15,2013-10-10 04:50:00,
2013-10-09 23:56:00,54.0,45.5,30.08,ESE,123,1.0,8.0,73,0.00,,,0.00,Wunderground v.1.15,2013-10-10 04:56:00,